Time;durP1;ratioP1;P1;durP2;ratioP2;P2;SDS_P1;SDS_P2;PMS_P1;PMS_P2;Temp;Humidity;BMP_temperature;BMP_pressure;BME280_temperature;BME280_humidity;BME280_pressure;Samples;Min_cycle;Max_cycle;Signal;HPM_P1;HPM_P2
2021/10/24 00:00:57;;;;;;;;;8.00;8.00;;;;;22.02;45.50;102308.31;5079403;27;45218;-73
2021/10/24 00:03:23;;;;;;;;;6.25;6.25;;;;;22.02;45.52;102313.69;5077813;27;46494;-73
2021/10/24 00:05:48;;;;;;;;;9.50;8.50;;;;;22.00;45.28;102304.84;5077829;28;46535;-73
2021/10/24 00:08:14;;;;;;;;;7.25;7.25;;;;;22.00;45.16;102302.16;5079920;27;45164;-73
2021/10/24 00:10:39;;;;;;;;;8.75;6.00;;;;;22.01;45.57;102303.03;5079784;27;45227;-74
2021/10/24 00:13:04;;;;;;;;;10.25;6.75;;;;;21.99;45.21;102295.09;5079866;27;45630;-72
2021/10/24 00:15:30;;;;;;;;;9.25;7.50;;;;;21.98;45.46;102296.06;5065996;27;45637;-72
2021/10/24 00:17:55;;;;;;;;;13.00;8.25;;;;;21.97;44.98;102290.78;5079650;27;45239;-72
2021/10/24 00:20:20;;;;;;;;;8.50;8.50;;;;;21.96;45.37;102287.25;5079412;27;45273;-71
2021/10/24 00:22:46;;;;;;;;;8.25;8.00;;;;;21.95;45.03;102284.66;5079382;27;45397;-72
2021/10/24 00:25:11;;;;;;;;;6.50;6.50;;;;;21.94;45.18;102288.28;5079319;27;45345;-72
2021/10/24 00:27:37;;;;;;;;;8.75;8.75;;;;;21.91;45.43;102287.50;5075140;27;45507;-72
2021/10/24 00:30:04;;;;;;;;;7.50;7.00;;;;;21.90;45.35;102292.97;5079868;27;45475;-72
2021/10/24 00:32:30;;;;;;;;;9.00;9.00;;;;;21.89;45.18;102292.09;5079479;27;45654;-72
2021/10/24 00:34:55;;;;;;;;;9.75;9.25;;;;;21.88;45.48;102287.69;5078796;27;47293;-72
2021/10/24 00:37:20;;;;;;;;;8.50;8.50;;;;;21.87;45.43;102279.75;5064589;28;45971;-72
2021/10/24 00:39:46;;;;;;;;;8.25;7.50;;;;;21.86;45.05;102277.97;5079681;27;45352;-72
2021/10/24 00:42:11;;;;;;;;;12.25;8.00;;;;;21.85;45.23;102281.63;5077701;28;45411;-72
2021/10/24 00:44:36;;;;;;;;;9.75;9.75;;;;;21.84;45.06;102278.06;5079283;27;45265;-72
2021/10/24 00:47:05;;;;;;;;;12.75;9.50;;;;;21.84;44.94;102277.22;5079400;27;45230;-72
2021/10/24 00:49:30;;;;;;;;;10.75;10.00;;;;;21.80;45.46;102274.69;5074660;28;45170;-72
2021/10/24 00:51:57;;;;;;;;;9.00;9.00;;;;;21.80;45.38;102280.06;5079375;27;45527;-72
2021/10/24 00:54:26;;;;;;;;;6.25;6.25;;;;;21.78;45.35;102273.94;5079495;28;45278;-72
2021/10/24 00:56:54;;;;;;;;;7.25;7.25;;;;;21.78;44.99;102271.25;5079500;27;45254;-72
2021/10/24 00:59:20;;;;;;;;;7.75;7.75;;;;;21.76;45.15;102261.59;5082345;27;45463;-72
2021/10/24 01:01:45;;;;;;;;;9.00;7.50;;;;;21.75;45.05;102268.78;5082145;27;45517;-73
2021/10/24 01:04:11;;;;;;;;;7.75;7.25;;;;;21.73;44.93;102273.31;5082381;27;45274;-71
2021/10/24 01:06:38;;;;;;;;;7.50;7.50;;;;;21.72;45.41;102268.94;5079890;27;45404;-72
2021/10/24 01:09:05;;;;;;;;;7.75;7.75;;;;;21.71;45.27;102272.56;5083009;27;45326;-73
2021/10/24 01:11:31;;;;;;;;;9.00;8.50;;;;;21.69;45.23;102263.75;5082284;27;46111;-72
2021/10/24 01:13:56;;;;;;;;;7.00;7.00;;;;;21.68;45.10;102262.88;5072699;27;46689;-71
2021/10/24 01:16:22;;;;;;;;;10.75;7.50;;;;;21.68;45.21;102268.22;5081286;28;45201;-72
2021/10/24 01:18:48;;;;;;;;;7.25;6.00;;;;;21.66;45.43;102266.59;5081685;27;45301;-71
2021/10/24 01:21:14;;;;;;;;;7.00;6.25;;;;;21.64;45.08;102264.00;5078884;27;45412;-71
2021/10/24 01:23:40;;;;;;;;;8.00;7.25;;;;;21.64;45.17;102260.47;5082431;27;45371;-72
2021/10/24 01:26:06;;;;;;;;;9.50;6.25;;;;;21.62;45.19;102262.38;5082294;27;45290;-71
2021/10/24 01:28:33;;;;;;;;;6.25;6.00;;;;;21.61;45.46;102256.16;5082618;27;45481;-73
2021/10/24 01:30:59;;;;;;;;;9.50;7.75;;;;;21.63;45.24;102256.09;5082196;27;45469;-72
2021/10/24 01:33:25;;;;;;;;;8.00;7.00;;;;;21.63;45.44;102254.25;5080851;27;46223;-77
2021/10/24 01:35:55;;;;;;;;;8.00;8.00;;;;;21.62;44.70;102243.66;5081002;28;45746;-77
2021/10/24 01:38:22;;;;;;;;;11.00;7.50;;;;;21.61;44.96;102244.63;5082014;28;45348;-77
2021/10/24 01:40:48;;;;;;;;;10.25;7.50;;;;;21.57;44.56;102242.09;5082365;27;45440;-72
2021/10/24 01:43:14;;;;;;;;;8.25;8.25;;;;;21.51;44.69;102239.75;5081921;27;45536;-75
2021/10/24 01:45:40;;;;;;;;;7.00;7.00;;;;;21.44;44.54;102236.56;5081979;27;45351;-74
2021/10/24 01:48:05;;;;;;;;;6.50;6.00;;;;;21.38;44.16;102233.38;5077769;27;45964;-75
2021/10/24 01:50:31;;;;;;;;;7.75;7.75;;;;;21.30;44.68;102229.31;5074549;28;45297;-75
2021/10/24 01:52:56;;;;;;;;;6.25;6.25;;;;;21.27;44.66;102225.94;5080712;28;47555;-75
2021/10/24 01:55:22;;;;;;;;;7.00;7.00;;;;;21.23;44.61;102222.59;5081964;27;45277;-75
2021/10/24 01:57:51;;;;;;;;;6.00;6.00;;;;;21.20;44.08;102218.28;5082049;27;45284;-75
2021/10/24 02:00:18;;;;;;;;;7.00;7.00;;;;;21.17;44.49;102209.56;5097763;27;47337;-75
2021/10/24 02:02:44;;;;;;;;;7.25;7.25;;;;;21.13;44.50;102200.84;5075869;27;45384;-75
2021/10/24 02:05:10;;;;;;;;;7.00;7.00;;;;;21.12;44.48;102201.78;5072628;28;45249;-75
2021/10/24 02:07:36;;;;;;;;;6.25;6.25;;;;;21.10;44.26;102204.56;5080636;28;45333;-75
2021/10/24 02:10:04;;;;;;;;;5.50;5.50;;;;;21.09;44.57;102197.47;5081481;27;45317;-74
2021/10/24 02:12:29;;;;;;;;;7.75;7.00;;;;;21.07;44.31;102194.03;5080490;27;48452;-75
2021/10/24 02:14:54;;;;;;;;;6.25;5.75;;;;;21.06;44.37;102183.44;5081249;27;45267;-75
2021/10/24 02:17:20;;;;;;;;;6.75;6.00;;;;;21.06;44.17;102180.75;5081486;27;45256;-76
2021/10/24 02:19:45;;;;;;;;;6.50;6.00;;;;;21.05;43.92;102173.66;5081558;27;45342;-74
2021/10/24 02:22:11;;;;;;;;;5.00;5.00;;;;;21.01;44.09;102165.81;5081207;27;46066;-71
2021/10/24 02:24:37;;;;;;;;;4.75;4.75;;;;;20.99;43.97;102175.69;5081785;27;45283;-71
2021/10/24 02:27:02;;;;;;;;;5.50;5.50;;;;;20.98;44.19;102173.13;5081632;27;45298;-72
2021/10/24 02:29:28;;;;;;;;;6.50;5.00;;;;;20.96;44.21;102164.31;5081435;27;45421;-72
2021/10/24 02:31:53;;;;;;;;;5.75;5.75;;;;;20.95;44.31;102168.81;5075816;27;46311;-71
2021/10/24 02:34:18;;;;;;;;;4.50;4.25;;;;;20.96;44.23;102162.53;5081322;27;45309;-73
2021/10/24 02:36:44;;;;;;;;;6.25;5.25;;;;;20.95;44.01;102157.25;5081305;27;45310;-72
2021/10/24 02:39:09;;;;;;;;;7.00;5.00;;;;;20.94;43.93;102156.38;5081326;27;45640;-75
2021/10/24 02:41:34;;;;;;;;;5.75;4.75;;;;;20.93;43.59;102162.69;5081101;27;46286;-75
2021/10/24 02:44:00;;;;;;;;;5.75;5.25;;;;;20.92;44.09;102158.28;5078132;28;45271;-76
2021/10/24 02:46:25;;;;;;;;;5.50;5.25;;;;;20.92;43.90;102147.59;5080943;27;45417;-75
2021/10/24 02:48:50;;;;;;;;;3.50;3.50;;;;;20.91;43.74;102152.06;5080397;27;45451;-76
2021/10/24 02:51:16;;;;;;;;;4.50;4.50;;;;;20.89;43.54;102147.78;5080714;27;45335;-75
2021/10/24 02:53:41;;;;;;;;;5.50;4.50;;;;;20.89;43.60;102148.63;5081395;27;45282;-76
2021/10/24 02:56:07;;;;;;;;;5.00;5.00;;;;;20.89;43.81;102142.44;5081203;27;45469;-76
2021/10/24 02:58:32;;;;;;;;;6.50;5.00;;;;;20.89;43.97;102143.28;5081183;27;45222;-75
2021/10/24 03:00:58;;;;;;;;;5.50;4.25;;;;;20.90;43.75;102139.66;5080586;27;45241;-75
2021/10/24 03:03:23;;;;;;;;;3.25;3.00;;;;;20.88;43.83;102136.22;5080729;27;45278;-75
2021/10/24 03:05:49;;;;;;;;;5.75;5.75;;;;;20.90;43.57;102138.78;5080001;28;45167;-75
2021/10/24 03:08:15;;;;;;;;;5.50;5.50;;;;;20.90;43.80;102134.31;5067373;27;45844;-76
2021/10/24 03:10:40;;;;;;;;;5.50;5.00;;;;;20.88;43.80;102138.91;5080760;27;45284;-75
2021/10/24 03:13:06;;;;;;;;;5.75;4.00;;;;;20.89;43.51;102137.09;5080950;27;45229;-75
2021/10/24 03:15:32;;;;;;;;;5.00;5.00;;;;;20.88;43.40;102130.88;5080594;27;45385;-76
2021/10/24 03:17:57;;;;;;;;;5.00;5.00;;;;;20.92;43.69;102135.09;5080514;27;45238;-75
2021/10/24 03:20:22;;;;;;;;;3.75;3.75;;;;;20.95;43.29;102131.38;5078692;28;46014;-75
2021/10/24 03:22:48;;;;;;;;;3.75;3.75;;;;;20.98;43.84;102125.88;5080313;27;45340;-76
2021/10/24 03:25:13;;;;;;;;;4.00;4.00;;;;;21.02;43.37;102129.25;5079805;27;45321;-76
2021/10/24 03:27:38;;;;;;;;;7.00;4.00;;;;;21.01;43.96;102123.06;5080521;27;45350;-75
2021/10/24 03:30:04;;;;;;;;;8.00;4.00;;;;;21.06;43.47;102124.63;5080536;27;45546;-75
2021/10/24 03:32:30;;;;;;;;;4.25;4.25;;;;;21.11;43.16;102133.25;5080365;27;46438;-76
2021/10/24 03:34:55;;;;;;;;;4.25;4.25;;;;;21.14;43.11;102131.25;5080401;27;45342;-76
2021/10/24 03:37:21;;;;;;;;;3.00;3.00;;;;;21.17;43.32;102134.69;5079287;27;45247;-76
2021/10/24 03:39:46;;;;;;;;;4.50;4.25;;;;;21.20;43.40;102129.19;5080540;27;46280;-74
2021/10/24 03:42:11;;;;;;;;;3.75;3.75;;;;;21.22;43.14;102130.81;5078649;28;45210;-73
2021/10/24 03:44:37;;;;;;;;;4.00;4.00;;;;;21.25;42.97;102132.47;5079148;27;45358;-73
2021/10/24 03:47:02;;;;;;;;;4.75;4.75;;;;;21.27;43.48;102135.91;5079799;27;45545;-76
2021/10/24 03:49:28;;;;;;;;;3.25;3.25;;;;;21.29;43.35;102143.84;5080018;27;46623;-76
2021/10/24 03:51:53;;;;;;;;;4.75;4.75;;;;;21.31;43.16;102145.47;5080437;27;46406;-75
2021/10/24 03:54:18;;;;;;;;;5.00;4.00;;;;;21.32;42.71;102147.22;5080550;27;45207;-75
2021/10/24 03:56:44;;;;;;;;;5.50;3.75;;;;;21.34;42.93;102139.09;5079529;27;45141;-76
2021/10/24 03:59:09;;;;;;;;;3.25;3.25;;;;;21.36;42.85;102147.88;5080085;27;45335;-76
2021/10/24 04:01:34;;;;;;;;;3.00;3.00;;;;;21.36;42.76;102154.09;5080072;27;45251;-75
2021/10/24 04:04:00;;;;;;;;;4.00;4.00;;;;;21.38;42.96;102154.03;5080105;27;45412;-76
2021/10/24 04:06:25;;;;;;;;;3.00;3.00;;;;;21.39;42.94;102152.19;5080173;27;45701;-76
2021/10/24 04:08:50;;;;;;;;;3.75;3.75;;;;;21.39;43.07;102149.53;5080180;27;45184;-74
2021/10/24 04:11:16;;;;;;;;;3.75;3.75;;;;;21.39;42.84;102152.19;5080077;27;45233;-73
2021/10/24 04:13:42;;;;;;;;;5.00;3.50;;;;;21.39;42.59;102155.75;5079063;27;45622;-75
2021/10/24 04:16:07;;;;;;;;;3.25;3.25;;;;;21.40;42.64;102152.13;5080069;27;45318;-73
2021/10/24 04:18:33;;;;;;;;;3.00;3.00;;;;;21.41;42.49;102156.50;5078974;27;46762;-73
2021/10/24 04:20:58;;;;;;;;;4.00;4.00;;;;;21.42;42.51;102162.72;5079957;27;45341;-73
2021/10/24 04:23:23;;;;;;;;;5.50;4.00;;;;;21.44;42.73;102152.78;5079845;27;45345;-73
2021/10/24 04:25:49;;;;;;;;;4.25;3.75;;;;;21.46;42.45;102158.91;5079962;27;45298;-72
2021/10/24 04:28:16;;;;;;;;;3.00;3.00;;;;;21.48;42.89;102160.56;5079805;28;46412;-72
2021/10/24 04:30:42;;;;;;;;;3.25;3.25;;;;;21.48;42.32;102159.72;5080044;27;45238;-72
2021/10/24 04:33:07;;;;;;;;;3.00;3.00;;;;;21.51;42.42;102159.53;5081350;27;45149;-72
2021/10/24 04:35:33;;;;;;;;;3.75;3.00;;;;;21.54;42.45;102161.16;5081686;27;45416;-72
2021/10/24 04:37:58;;;;;;;;;2.25;2.25;;;;;21.54;42.52;102145.97;5081116;28;46358;-72
2021/10/24 04:40:24;;;;;;;;;3.50;2.00;;;;;21.57;42.69;102153.84;5081988;27;45688;-72
2021/10/24 04:42:49;;;;;;;;;3.75;3.75;;;;;21.59;42.46;102153.72;5082184;27;45374;-72
2021/10/24 04:45:14;;;;;;;;;4.00;3.25;;;;;21.61;42.54;102151.00;5080952;27;45543;-73
2021/10/24 04:47:40;;;;;;;;;4.25;4.25;;;;;21.63;42.81;102157.94;5082643;27;45227;-72
2021/10/24 04:50:06;;;;;;;;;3.00;3.00;;;;;21.64;42.50;102146.31;5082425;27;45152;-72
2021/10/24 04:52:32;;;;;;;;;2.25;2.25;;;;;21.65;42.26;102144.50;5080975;28;45338;-73
2021/10/24 04:54:57;;;;;;;;;2.50;2.50;;;;;21.66;42.70;102149.75;5082987;27;45454;-72
2021/10/24 04:57:23;;;;;;;;;3.25;3.25;;;;;21.66;42.15;102147.06;5082658;28;46233;-72
2021/10/24 04:59:48;;;;;;;;;1.25;1.25;;;;;21.68;42.13;102144.31;5083071;27;45309;-75
2021/10/24 05:02:14;;;;;;;;;3.00;3.00;;;;;21.68;41.99;102139.81;5082242;27;45250;-75
2021/10/24 05:04:39;;;;;;;;;2.00;2.00;;;;;21.66;42.05;102128.34;5082751;27;45477;-75
2021/10/24 05:07:05;;;;;;;;;3.25;2.75;;;;;21.69;41.56;102135.31;5082456;27;46384;-73
2021/10/24 05:09:30;;;;;;;;;4.00;3.50;;;;;21.69;42.16;102135.31;5082223;27;45348;-72
2021/10/24 05:11:55;;;;;;;;;3.75;2.00;;;;;21.69;41.56;102130.84;5082266;27;45495;-73
2021/10/24 05:14:21;;;;;;;;;3.00;3.00;;;;;21.72;41.81;102132.47;5081901;27;45602;-71
2021/10/24 05:16:46;;;;;;;;;3.00;3.00;;;;;21.72;41.63;102129.81;5081981;27;45386;-72
2021/10/24 05:19:11;;;;;;;;;2.50;2.50;;;;;21.73;41.49;102131.50;5082607;27;45237;-72
2021/10/24 05:21:37;;;;;;;;;3.00;3.00;;;;;21.72;41.74;102123.59;5082430;27;45277;-74
2021/10/24 05:24:03;;;;;;;;;2.25;2.25;;;;;21.73;41.49;102120.81;5082162;27;45619;-73
2021/10/24 05:26:29;;;;;;;;;2.00;2.00;;;;;21.73;41.93;102119.97;5080431;28;46984;-73
2021/10/24 05:28:55;;;;;;;;;3.00;3.00;;;;;21.72;41.83;102119.09;5081916;28;45284;-73
2021/10/24 05:31:20;;;;;;;;;3.50;2.00;;;;;21.75;41.54;102123.41;5082210;27;45278;-73
2021/10/24 05:33:46;;;;;;;;;3.00;3.00;;;;;21.75;41.84;102120.75;5082375;27;45453;-75
2021/10/24 05:36:11;;;;;;;;;1.50;1.50;;;;;21.76;41.92;102125.13;5082283;27;46939;-74
2021/10/24 05:38:37;;;;;;;;;2.75;2.25;;;;;21.77;41.77;102117.03;5082144;27;45332;-74
2021/10/24 05:41:02;;;;;;;;;3.00;3.00;;;;;21.77;41.45;102117.03;5082364;27;45326;-72
2021/10/24 05:43:29;;;;;;;;;3.00;3.00;;;;;21.77;42.07;102122.38;5078869;28;46414;-72
2021/10/24 05:45:54;;;;;;;;;1.25;1.25;;;;;21.80;41.45;102114.16;5082261;28;45629;-72
2021/10/24 05:48:19;;;;;;;;;2.00;2.00;;;;;21.81;41.51;102115.88;5081263;27;45333;-70
2021/10/24 05:50:46;;;;;;;;;3.50;2.50;;;;;21.83;41.94;102117.63;5082278;27;45276;-70
2021/10/24 05:53:11;;;;;;;;;4.75;3.25;;;;;21.85;41.66;102115.69;5081931;27;45333;-70
2021/10/24 05:55:37;;;;;;;;;2.75;2.75;;;;;21.86;41.73;102120.09;5082102;27;45339;-71
2021/10/24 05:58:03;;;;;;;;;2.25;2.25;;;;;21.87;41.40;102112.03;5081090;27;45522;-71
2021/10/24 06:00:29;;;;;;;;;2.00;2.00;;;;;21.88;41.46;102113.72;5082285;27;45164;-71
2021/10/24 06:02:55;;;;;;;;;2.00;2.00;;;;;21.88;41.30;102107.50;5081036;27;45474;-71
2021/10/24 06:05:20;;;;;;;;;3.50;2.25;;;;;21.87;41.68;102095.09;5080376;28;46152;-70
2021/10/24 06:07:46;;;;;;;;;1.00;1.00;;;;;21.91;41.81;102100.16;5081442;27;45231;-70
2021/10/24 06:10:21;;;;;;;;;2.25;2.25;;;;;21.92;41.24;102104.59;5081733;28;45396;-72
2021/10/24 06:12:51;;;;;;;;;4.25;3.00;;;;;21.92;41.00;102103.72;5080883;27;45352;-71
2021/10/24 06:15:17;;;;;;;;;3.00;3.00;;;;;21.91;41.21;102100.16;5081572;28;45304;-69
2021/10/24 06:17:44;;;;;;;;;2.25;2.25;;;;;21.94;41.52;102106.28;5069635;27;45227;-72
2021/10/24 06:20:10;;;;;;;;;1.75;1.75;;;;;21.94;40.84;102101.81;5081766;27;45390;-71
2021/10/24 06:22:36;;;;;;;;;2.50;2.50;;;;;21.94;41.05;102107.16;5080085;28;45538;-69
2021/10/24 06:25:03;;;;;;;;;3.75;3.75;;;;;21.94;41.29;102107.16;5072490;28;45420;-69
2021/10/24 06:27:28;;;;;;;;;4.00;3.00;;;;;21.94;40.50;102115.19;5076395;28;45775;-70
2021/10/24 06:29:54;;;;;;;;;2.00;2.00;;;;;21.93;41.04;102102.75;5081195;27;45256;-71
2021/10/24 06:32:19;;;;;;;;;4.50;3.00;;;;;21.95;41.01;102105.34;5079511;27;45355;-72
2021/10/24 06:34:45;;;;;;;;;1.75;1.75;;;;;21.95;41.13;102106.22;5079576;28;46578;-70
2021/10/24 06:37:10;;;;;;;;;3.00;3.00;;;;;21.94;40.50;102096.44;5080459;27;45321;-71
2021/10/24 06:39:35;;;;;;;;;2.75;2.75;;;;;21.96;40.66;102107.06;5081701;27;45373;-71
2021/10/24 06:42:01;;;;;;;;;2.50;2.50;;;;;21.96;40.82;102105.25;5078785;28;45421;-72
2021/10/24 06:44:26;;;;;;;;;3.00;2.00;;;;;21.99;40.57;102109.53;5081194;28;45589;-73
2021/10/24 06:46:52;;;;;;;;;2.00;2.00;;;;;21.98;40.95;102108.69;5080441;27;45511;-73
2021/10/24 06:49:17;;;;;;;;;3.25;3.25;;;;;22.00;40.94;102111.28;5080033;28;45251;-73
2021/10/24 06:51:42;;;;;;;;;1.50;1.50;;;;;22.01;40.60;102110.31;5080850;27;45629;-73
2021/10/24 06:54:08;;;;;;;;;3.00;3.00;;;;;22.02;40.84;102112.91;5079615;27;45751;-73
2021/10/24 06:56:33;;;;;;;;;2.00;2.00;;;;;22.04;40.87;102102.09;5080007;27;45306;-73
2021/10/24 06:58:59;;;;;;;;;3.25;3.25;;;;;22.04;40.72;102102.09;5079790;28;45296;-72
2021/10/24 07:01:24;;;;;;;;;2.25;2.25;;;;;22.03;40.24;102101.22;5080836;27;45215;-72
2021/10/24 07:03:50;;;;;;;;;2.00;2.00;;;;;22.06;40.20;102107.34;5079297;28;48170;-72
2021/10/24 07:06:16;;;;;;;;;3.50;3.50;;;;;22.06;41.00;102100.19;5078892;28;45664;-71
2021/10/24 07:08:41;;;;;;;;;1.50;1.25;;;;;22.07;40.14;102096.56;5081109;27;45222;-73
2021/10/24 07:11:07;;;;;;;;;2.25;2.25;;;;;22.07;40.63;102095.69;5079913;27;45373;-72
2021/10/24 07:13:32;;;;;;;;;4.00;4.00;;;;;22.01;40.10;102089.75;5078557;28;47348;-72
2021/10/24 07:15:57;;;;;;;;;2.50;2.50;;;;;22.05;39.94;102094.94;5080935;27;45333;-71
2021/10/24 07:18:23;;;;;;;;;5.00;2.75;;;;;22.04;40.04;102094.06;5080428;27;45313;-70
2021/10/24 07:20:48;;;;;;;;;2.75;2.25;;;;;22.06;39.98;102093.97;5079861;27;45306;-71
2021/10/24 07:23:13;;;;;;;;;3.00;2.00;;;;;22.06;40.25;102099.31;5079292;28;47094;-70
2021/10/24 07:25:39;;;;;;;;;2.00;2.00;;;;;22.06;40.17;102091.28;5080200;28;45243;-74
2021/10/24 07:28:05;;;;;;;;;3.25;3.25;;;;;22.05;39.95;102090.41;5080592;27;45386;-72
2021/10/24 07:30:30;;;;;;;;;2.75;2.75;;;;;22.06;40.31;102094.84;5080327;27;45523;-71
2021/10/24 07:32:56;;;;;;;;;4.25;4.25;;;;;22.06;40.53;102096.66;5077686;27;45986;-72
2021/10/24 07:35:22;;;;;;;;;4.50;3.25;;;;;22.05;40.58;102098.44;5082249;27;45428;-73
2021/10/24 07:37:47;;;;;;;;;3.00;3.00;;;;;22.05;40.71;102101.13;5080867;28;45285;-74
2021/10/24 07:40:13;;;;;;;;;4.00;2.75;;;;;22.07;40.53;102104.59;5078787;28;46080;-74
2021/10/24 07:42:39;;;;;;;;;1.75;1.75;;;;;22.09;40.49;102099.16;5080141;27;46178;-72
2021/10/24 07:45:05;;;;;;;;;3.25;3.25;;;;;22.10;40.05;102100.88;5079997;27;45467;-74
2021/10/24 07:47:31;;;;;;;;;3.75;3.00;;;;;22.11;40.04;102098.09;5078682;27;45330;-73
2021/10/24 07:49:58;;;;;;;;;3.00;3.00;;;;;22.13;40.16;102084.59;5077638;27;45551;-73
2021/10/24 07:52:24;;;;;;;;;2.75;2.75;;;;;22.13;40.00;102082.81;5077495;27;46795;-73
2021/10/24 07:54:49;;;;;;;;;3.50;2.50;;;;;22.18;39.79;102087.00;5079624;27;45431;-71
2021/10/24 07:57:15;;;;;;;;;2.00;2.00;;;;;22.17;40.12;102080.81;5066565;28;45382;-72
2021/10/24 07:59:40;;;;;;;;;2.00;2.00;;;;;22.21;40.15;102082.34;5077939;28;45287;-72
2021/10/24 08:02:06;;;;;;;;;3.00;3.00;;;;;22.23;40.10;102085.78;5078527;27;46083;-71
2021/10/24 08:04:35;;;;;;;;;2.25;2.25;;;;;22.25;40.14;102081.19;5079121;27;45649;-72
2021/10/24 08:07:03;;;;;;;;;2.50;2.00;;;;;22.27;40.29;102073.06;5076817;27;45523;-71
2021/10/24 08:09:29;;;;;;;;;2.75;2.75;;;;;22.30;39.68;102074.69;5078538;27;45317;-72
2021/10/24 08:11:56;;;;;;;;;3.00;3.00;;;;;22.31;39.71;102074.59;5078239;28;46556;-72
2021/10/24 08:14:21;;;;;;;;;4.00;2.50;;;;;22.33;40.39;102078.03;5075579;27;45635;-74
2021/10/24 08:16:47;;;;;;;;;2.75;2.75;;;;;22.34;40.10;102077.09;5076876;27;45803;-72
2021/10/24 08:19:13;;;;;;;;;1.25;1.25;;;;;22.36;39.71;102072.50;5078460;27;46380;-72
2021/10/24 08:21:39;;;;;;;;;3.25;2.00;;;;;22.37;39.77;102070.69;5088352;27;48484;-71
2021/10/24 08:24:05;;;;;;;;;1.50;1.50;;;;;22.41;39.67;102076.69;5075358;27;45465;-71
2021/10/24 08:26:31;;;;;;;;;2.75;2.00;;;;;22.44;39.65;102082.72;5077295;28;45345;-71
2021/10/24 08:28:57;;;;;;;;;3.00;2.00;;;;;22.44;39.71;102069.34;5078282;28;45432;-72
2021/10/24 08:31:28;;;;;;;;;3.50;2.00;;;;;22.45;39.56;102073.72;5074646;27;46149;-72
2021/10/24 08:33:55;;;;;;;;;2.75;2.75;;;;;22.45;39.83;102072.84;5074445;27;45458;-72
2021/10/24 08:36:22;;;;;;;;;2.50;2.50;;;;;22.45;39.99;102073.72;5074586;27;45465;-71
2021/10/24 08:38:48;;;;;;;;;3.00;2.50;;;;;22.44;39.36;102082.72;5077516;28;46335;-72
2021/10/24 08:41:21;;;;;;;;;2.00;2.00;;;;;22.44;39.96;102093.44;5076847;27;47036;-72
2021/10/24 08:43:48;;;;;;;;;3.00;3.00;;;;;22.47;39.91;102084.34;5078211;27;45516;-72
2021/10/24 08:46:16;;;;;;;;;2.25;1.25;;;;;22.50;39.92;102086.81;5077476;27;45345;-72
2021/10/24 08:48:41;;;;;;;;;4.00;4.00;;;;;22.54;39.31;102087.50;5068173;27;45455;-71
2021/10/24 08:51:07;;;;;;;;;3.25;2.25;;;;;22.54;39.43;102083.00;5079171;27;46258;-71
2021/10/24 08:53:35;;;;;;;;;2.00;2.00;;;;;22.62;39.94;102084.34;5079606;27;45221;-71
2021/10/24 08:56:01;;;;;;;;;2.00;2.00;;;;;22.80;39.44;102082.31;5078463;27;45234;-72
2021/10/24 08:58:26;;;;;;;;;2.75;2.00;;;;;22.83;40.20;102082.13;5078523;27;45428;-72
2021/10/24 09:00:53;;;;;;;;;3.75;2.25;;;;;22.86;39.65;102079.25;5079293;27;46241;-72
2021/10/24 09:03:18;;;;;;;;;4.25;4.25;;;;;22.88;39.58;102074.66;5078859;27;45316;-72
2021/10/24 09:05:46;;;;;;;;;2.00;2.00;;;;;22.89;39.34;102081.72;5079650;27;45626;-72
2021/10/24 09:08:20;;;;;;;;;3.50;3.00;;;;;22.91;39.19;102069.09;5078306;27;45472;-72
2021/10/24 09:10:49;;;;;;;;;3.00;3.00;;;;;22.90;39.89;102059.31;5076741;28;46341;-72
2021/10/24 09:13:24;;;;;;;;;3.25;3.25;;;;;22.88;39.28;102057.69;5075667;28;45457;-73
2021/10/24 09:15:51;;;;;;;;;4.25;2.75;;;;;22.86;39.64;102052.44;5093966;27;45221;-71
2021/10/24 09:18:18;;;;;;;;;3.50;3.50;;;;;22.85;39.74;102047.16;5079747;27;45268;-73
2021/10/24 09:20:43;;;;;;;;;2.25;2.25;;;;;22.82;39.97;102049.09;5082520;27;45337;-70
2021/10/24 09:23:12;;;;;;;;;3.50;3.50;;;;;22.79;39.95;102035.88;5082444;27;45456;-66
2021/10/24 09:25:51;;;;;;;;;4.25;4.00;;;;;22.77;39.77;102032.44;5080202;27;45250;-66
2021/10/24 09:28:20;;;;;;;;;4.75;3.00;;;;;22.76;39.85;102029.88;5097176;27;46317;-66
2021/10/24 09:30:46;;;;;;;;;3.75;3.75;;;;;22.75;39.54;102030.84;5080547;28;45390;-66
2021/10/24 09:33:13;;;;;;;;;5.50;3.00;;;;;22.73;39.95;102016.69;5081651;28;45456;-66
2021/10/24 09:35:45;;;;;;;;;5.25;3.75;;;;;22.71;39.35;102019.47;5082398;27;45220;-66
2021/10/24 09:38:19;;;;;;;;;3.00;3.00;;;;;22.69;39.72;102024.91;5081451;27;45445;-73
2021/10/24 09:40:54;;;;;;;;;2.50;2.25;;;;;22.69;39.81;102027.59;5082237;28;46393;-66
2021/10/24 09:43:25;;;;;;;;;3.00;3.00;;;;;22.69;40.01;102024.91;5078336;27;45397;-66
2021/10/24 09:46:11;;;;;;;;;3.00;3.00;;;;;22.70;39.81;102034.69;5080849;28;45375;-67
2021/10/24 09:48:39;;;;;;;;;6.50;4.75;;;;;22.70;39.29;102039.16;5071159;28;45350;-66
2021/10/24 09:51:12;;;;;;;;;6.50;4.50;;;;;22.67;39.67;102034.84;5081453;27;46860;-69
2021/10/24 09:53:39;;;;;;;;;6.25;4.00;;;;;22.66;39.84;102043.84;5082150;27;45321;-73
2021/10/24 09:56:14;;;;;;;;;3.00;1.50;;;;;22.61;40.33;102043.28;5081604;28;45337;-70
2021/10/24 09:58:45;;;;;;;;;9.75;8.75;;;;;22.60;39.72;102041.56;5067331;27;45588;-67
2021/10/24 10:01:13;;;;;;;;;8.00;6.75;;;;;22.58;39.54;102043.47;5080163;27;45978;-67
2021/10/24 10:03:40;;;;;;;;;4.75;4.00;;;;;22.56;39.75;102040.91;5061639;28;45457;-66
2021/10/24 10:06:06;;;;;;;;;9.50;6.00;;;;;22.53;39.33;102038.41;5067559;28;45784;-65
2021/10/24 10:08:32;;;;;;;;;5.00;5.00;;;;;22.53;39.22;102042.91;5072833;28;45643;-65
2021/10/24 10:11:05;;;;;;;;;6.50;6.00;;;;;22.52;39.97;102049.25;5065169;28;46766;-66
2021/10/24 10:13:33;;;;;;;;;4.00;4.00;;;;;22.52;39.25;102046.56;5067705;28;45330;-65
2021/10/24 10:21:01;;;;;;;;;11.00;10.00;;;;;20.34;38.08;102046.53;5112365;27;46107;-77
2021/10/24 10:23:40;;;;;;;;;15.75;11.75;;;;;19.15;38.94;102036.47;5097164;27;45714;-78
2021/10/24 10:26:42;;;;;;;;;15.75;13.25;;;;;18.09;40.26;102041.25;5097095;27;45215;-78
2021/10/24 10:29:15;;;;;;;;;13.50;11.75;;;;;17.34;41.11;102051.47;5077614;27;45394;-78
2021/10/24 10:32:17;;;;;;;;;21.25;17.00;;;;;16.62;42.43;102066.56;5095322;27;45648;-78
2021/10/24 10:34:58;;;;;;;;;17.50;14.00;;;;;16.02;43.72;102065.16;5096870;27;45228;-78
2021/10/24 10:37:43;;;;;;;;;16.00;12.00;;;;;15.50;44.67;102066.88;5097122;27;45425;-78
2021/10/24 10:40:32;;;;;;;;;15.50;15.50;;;;;15.07;45.25;102067.31;5096656;27;45406;-78
2021/10/24 10:43:11;;;;;;;;;13.00;11.25;;;;;14.70;46.28;102071.88;5088980;27;45389;-78
2021/10/24 10:45:37;;;;;;;;;15.00;12.25;;;;;14.43;46.86;102071.75;5098389;27;45915;-78
2021/10/24 10:48:06;;;;;;;;;16.00;13.50;;;;;14.17;48.21;102065.44;5105446;27;45343;-82
2021/10/24 10:50:38;;;;;;;;;12.75;10.75;;;;;13.98;50.95;102063.25;5077442;27;46976;-81
2021/10/24 10:53:37;;;;;;;;;24.00;16.25;;;;;13.89;51.77;102064.38;5096508;27;45382;-81
2021/10/24 10:56:03;;;;;;;;;19.25;17.00;;;;;13.90;50.81;102066.09;5096071;27;45215;-81
2021/10/24 10:58:46;;;;;;;;;21.00;17.75;;;;;13.88;50.42;102070.56;5096537;27;45469;-80
2021/10/24 11:01:29;;;;;;;;;12.00;12.00;;;;;13.83;50.63;102065.38;5099553;27;45326;-80
2021/10/24 11:03:58;;;;;;;;;13.25;11.00;;;;;13.72;50.72;102073.59;5094247;27;46568;-81
2021/10/24 11:06:26;;;;;;;;;17.75;15.75;;;;;13.68;50.79;102074.56;5095288;27;45247;-81
2021/10/24 11:08:56;;;;;;;;;13.50;12.00;;;;;13.56;51.46;102070.47;5094977;27;45321;-81
2021/10/24 11:11:43;;;;;;;;;16.25;14.00;;;;;13.53;51.04;102073.13;5096265;27;45484;-81
2021/10/24 11:14:15;;;;;;;;;17.75;14.00;;;;;13.45;51.58;102060.13;5089901;27;45281;-81
2021/10/24 11:16:48;;;;;;;;;17.25;12.75;;;;;13.39;51.83;102062.91;5094498;27;45271;-81
2021/10/24 11:19:28;;;;;;;;;16.50;14.50;;;;;13.35;51.99;102058.59;5094332;27;45524;-80
2021/10/24 11:22:01;;;;;;;;;16.00;14.25;;;;;13.30;52.07;102057.84;5093145;27;45524;-81
2021/10/24 11:24:32;;;;;;;;;21.00;17.50;;;;;13.22;52.41;102053.63;5095705;27;45429;-81
2021/10/24 11:26:59;;;;;;;;;23.25;20.50;;;;;13.19;52.37;102051.03;5101668;27;45821;-81
2021/10/24 11:29:25;;;;;;;;;15.75;14.50;;;;;13.16;52.86;102051.97;5096279;27;45504;-81